sensor_id;sensor_type;location;lat;lon;timestamp;P1;durP1;ratioP1;P2;durP2;ratioP2
35290;SDS011;21411;50.024;19.220;2022-07-23T00:01:23;30.10;;;27.00;;
35290;SDS011;21411;50.024;19.220;2022-07-23T00:03:50;28.80;;;26.00;;
35290;SDS011;21411;50.024;19.220;2022-07-23T00:06:17;28.70;;;25.80;;
35290;SDS011;21411;50.024;19.220;2022-07-23T00:08:43;30.20;;;27.00;;
35290;SDS011;21411;50.024;19.220;2022-07-23T00:11:10;29.80;;;26.80;;
35290;SDS011;21411;50.024;19.220;2022-07-23T00:13:36;28.30;;;25.50;;
35290;SDS011;21411;50.024;19.220;2022-07-23T00:16:02;28.70;;;26.00;;
35290;SDS011;21411;50.024;19.220;2022-07-23T00:18:28;30.20;;;27.10;;
35290;SDS011;21411;50.024;19.220;2022-07-23T00:20:54;30.10;;;27.20;;
35290;SDS011;21411;50.024;19.220;2022-07-23T00:23:20;29.80;;;26.70;;
35290;SDS011;21411;50.024;19.220;2022-07-23T00:25:46;30.20;;;27.30;;
35290;SDS011;21411;50.024;19.220;2022-07-23T00:28:12;29.20;;;26.60;;
35290;SDS011;21411;50.024;19.220;2022-07-23T00:30:38;31.40;;;28.30;;
35290;SDS011;21411;50.024;19.220;2022-07-23T00:33:05;28.50;;;26.00;;
35290;SDS011;21411;50.024;19.220;2022-07-23T00:35:36;28.80;;;25.90;;
35290;SDS011;21411;50.024;19.220;2022-07-23T00:38:06;30.20;;;27.30;;
35290;SDS011;21411;50.024;19.220;2022-07-23T00:40:35;30.90;;;27.70;;
35290;SDS011;21411;50.024;19.220;2022-07-23T00:43:02;29.90;;;27.30;;
35290;SDS011;21411;50.024;19.220;2022-07-23T00:45:29;31.90;;;28.80;;
35290;SDS011;21411;50.024;19.220;2022-07-23T00:47:56;31.90;;;28.80;;
35290;SDS011;21411;50.024;19.220;2022-07-23T00:50:23;29.90;;;27.00;;
35290;SDS011;21411;50.024;19.220;2022-07-23T00:52:50;28.50;;;25.80;;
35290;SDS011;21411;50.024;19.220;2022-07-23T00:55:16;29.50;;;26.80;;
35290;SDS011;21411;50.024;19.220;2022-07-23T00:57:42;31.10;;;28.00;;
35290;SDS011;21411;50.024;19.220;2022-07-23T01:00:10;29.30;;;26.40;;
35290;SDS011;21411;50.024;19.220;2022-07-23T01:02:37;30.50;;;27.70;;
35290;SDS011;21411;50.024;19.220;2022-07-23T01:05:04;29.30;;;26.40;;
35290;SDS011;21411;50.024;19.220;2022-07-23T01:07:31;30.00;;;27.10;;
35290;SDS011;21411;50.024;19.220;2022-07-23T01:09:58;29.60;;;26.50;;
35290;SDS011;21411;50.024;19.220;2022-07-23T01:12:24;30.60;;;27.70;;
35290;SDS011;21411;50.024;19.220;2022-07-23T01:14:56;28.90;;;26.20;;
35290;SDS011;21411;50.024;19.220;2022-07-23T01:17:23;29.60;;;26.80;;
35290;SDS011;21411;50.024;19.220;2022-07-23T01:19:50;31.10;;;28.20;;
35290;SDS011;21411;50.024;19.220;2022-07-23T01:22:18;27.60;;;25.00;;
35290;SDS011;21411;50.024;19.220;2022-07-23T01:24:45;29.30;;;26.60;;
35290;SDS011;21411;50.024;19.220;2022-07-23T01:27:11;28.00;;;25.30;;
35290;SDS011;21411;50.024;19.220;2022-07-23T01:29:38;27.80;;;25.00;;
35290;SDS011;21411;50.024;19.220;2022-07-23T01:32:05;28.10;;;25.60;;
35290;SDS011;21411;50.024;19.220;2022-07-23T01:34:31;26.80;;;24.20;;
35290;SDS011;21411;50.024;19.220;2022-07-23T01:36:58;27.40;;;24.90;;
35290;SDS011;21411;50.024;19.220;2022-07-23T01:39:23;28.40;;;25.70;;
35290;SDS011;21411;50.024;19.220;2022-07-23T01:41:49;30.90;;;27.70;;
35290;SDS011;21411;50.024;19.220;2022-07-23T01:44:16;32.10;;;29.00;;
35290;SDS011;21411;50.024;19.220;2022-07-23T01:46:41;30.30;;;27.50;;
35290;SDS011;21411;50.024;19.220;2022-07-23T01:49:08;31.00;;;28.20;;
35290;SDS011;21411;50.024;19.220;2022-07-23T01:51:34;30.50;;;27.80;;
35290;SDS011;21411;50.024;19.220;2022-07-23T01:54:00;32.80;;;29.70;;
35290;SDS011;21411;50.024;19.220;2022-07-23T01:56:26;32.80;;;29.50;;
35290;SDS011;21411;50.024;19.220;2022-07-23T01:58:52;33.60;;;30.20;;
35290;SDS011;21411;50.024;19.220;2022-07-23T02:01:18;31.60;;;28.40;;
35290;SDS011;21411;50.024;19.220;2022-07-23T02:03:44;32.30;;;29.40;;
35290;SDS011;21411;50.024;19.220;2022-07-23T02:06:10;32.70;;;29.70;;
35290;SDS011;21411;50.024;19.220;2022-07-23T02:08:36;36.20;;;32.70;;
35290;SDS011;21411;50.024;19.220;2022-07-23T02:11:02;34.00;;;30.70;;
35290;SDS011;21411;50.024;19.220;2022-07-23T02:13:28;33.20;;;30.10;;
35290;SDS011;21411;50.024;19.220;2022-07-23T02:15:55;33.90;;;30.80;;
35290;SDS011;21411;50.024;19.220;2022-07-23T02:18:20;35.30;;;31.90;;
35290;SDS011;21411;50.024;19.220;2022-07-23T02:20:47;32.10;;;29.10;;
35290;SDS011;21411;50.024;19.220;2022-07-23T02:23:13;33.80;;;30.00;;
35290;SDS011;21411;50.024;19.220;2022-07-23T02:25:38;32.70;;;29.40;;
35290;SDS011;21411;50.024;19.220;2022-07-23T02:28:05;31.50;;;28.50;;
35290;SDS011;21411;50.024;19.220;2022-07-23T02:30:31;33.20;;;29.70;;
35290;SDS011;21411;50.024;19.220;2022-07-23T02:32:57;32.70;;;29.70;;
35290;SDS011;21411;50.024;19.220;2022-07-23T02:35:23;31.70;;;28.70;;
35290;SDS011;21411;50.024;19.220;2022-07-23T02:37:49;32.20;;;29.20;;
35290;SDS011;21411;50.024;19.220;2022-07-23T02:40:15;33.90;;;30.70;;
35290;SDS011;21411;50.024;19.220;2022-07-23T02:42:41;28.90;;;26.20;;
35290;SDS011;21411;50.024;19.220;2022-07-23T02:45:07;30.10;;;27.30;;
35290;SDS011;21411;50.024;19.220;2022-07-23T02:47:33;34.00;;;30.70;;
35290;SDS011;21411;50.024;19.220;2022-07-23T02:50:00;33.50;;;30.40;;
35290;SDS011;21411;50.024;19.220;2022-07-23T02:52:26;31.20;;;28.40;;
35290;SDS011;21411;50.024;19.220;2022-07-23T02:54:51;35.10;;;31.60;;
35290;SDS011;21411;50.024;19.220;2022-07-23T02:57:17;33.50;;;30.40;;
35290;SDS011;21411;50.024;19.220;2022-07-23T02:59:43;32.10;;;29.20;;
35290;SDS011;21411;50.024;19.220;2022-07-23T03:02:09;32.30;;;29.40;;
35290;SDS011;21411;50.024;19.220;2022-07-23T03:04:35;30.20;;;27.30;;
35290;SDS011;21411;50.024;19.220;2022-07-23T03:07:01;29.90;;;27.00;;
35290;SDS011;21411;50.024;19.220;2022-07-23T03:09:27;27.70;;;25.10;;
35290;SDS011;21411;50.024;19.220;2022-07-23T03:11:53;26.90;;;24.60;;
35290;SDS011;21411;50.024;19.220;2022-07-23T03:14:19;31.80;;;28.90;;
35290;SDS011;21411;50.024;19.220;2022-07-23T03:16:45;32.10;;;29.30;;
35290;SDS011;21411;50.024;19.220;2022-07-23T03:19:11;27.50;;;24.90;;
35290;SDS011;21411;50.024;19.220;2022-07-23T03:21:37;26.50;;;23.70;;
35290;SDS011;21411;50.024;19.220;2022-07-23T03:24:07;24.30;;;22.10;;
35290;SDS011;21411;50.024;19.220;2022-07-23T03:26:35;27.10;;;24.20;;
35290;SDS011;21411;50.024;19.220;2022-07-23T03:29:01;24.20;;;22.10;;
35290;SDS011;21411;50.024;19.220;2022-07-23T03:31:29;23.30;;;21.30;;
35290;SDS011;21411;50.024;19.220;2022-07-23T03:33:57;22.20;;;20.30;;
35290;SDS011;21411;50.024;19.220;2022-07-23T03:36:23;23.10;;;20.80;;
35290;SDS011;21411;50.024;19.220;2022-07-23T03:38:50;25.10;;;22.70;;
35290;SDS011;21411;50.024;19.220;2022-07-23T03:41:17;27.50;;;24.80;;
35290;SDS011;21411;50.024;19.220;2022-07-23T03:43:43;26.00;;;23.60;;
35290;SDS011;21411;50.024;19.220;2022-07-23T03:46:09;25.00;;;22.70;;
35290;SDS011;21411;50.024;19.220;2022-07-23T03:48:35;26.00;;;23.70;;
35290;SDS011;21411;50.024;19.220;2022-07-23T03:51:01;23.70;;;21.50;;
35290;SDS011;21411;50.024;19.220;2022-07-23T03:53:27;23.10;;;21.10;;
35290;SDS011;21411;50.024;19.220;2022-07-23T03:55:54;22.80;;;21.00;;
35290;SDS011;21411;50.024;19.220;2022-07-23T03:58:20;23.70;;;21.80;;
35290;SDS011;21411;50.024;19.220;2022-07-23T04:00:46;22.20;;;20.30;;
35290;SDS011;21411;50.024;19.220;2022-07-23T04:03:13;24.40;;;22.40;;
35290;SDS011;21411;50.024;19.220;2022-07-23T04:05:38;23.50;;;21.40;;
35290;SDS011;21411;50.024;19.220;2022-07-23T04:08:04;23.80;;;21.70;;
35290;SDS011;21411;50.024;19.220;2022-07-23T04:10:31;23.70;;;21.70;;
35290;SDS011;21411;50.024;19.220;2022-07-23T04:12:57;22.60;;;20.70;;
35290;SDS011;21411;50.024;19.220;2022-07-23T04:15:23;22.60;;;20.80;;
35290;SDS011;21411;50.024;19.220;2022-07-23T04:17:49;22.80;;;20.80;;
35290;SDS011;21411;50.024;19.220;2022-07-23T04:20:14;22.40;;;20.70;;
35290;SDS011;21411;50.024;19.220;2022-07-23T04:22:41;22.40;;;20.50;;
35290;SDS011;21411;50.024;19.220;2022-07-23T04:25:07;21.20;;;19.40;;
35290;SDS011;21411;50.024;19.220;2022-07-23T04:27:33;21.50;;;19.60;;
35290;SDS011;21411;50.024;19.220;2022-07-23T04:29:59;19.90;;;18.00;;
35290;SDS011;21411;50.024;19.220;2022-07-23T04:32:25;21.00;;;19.30;;
35290;SDS011;21411;50.024;19.220;2022-07-23T04:34:51;19.10;;;17.40;;
35290;SDS011;21411;50.024;19.220;2022-07-23T04:37:17;19.60;;;17.80;;
35290;SDS011;21411;50.024;19.220;2022-07-23T04:39:43;18.20;;;16.80;;
35290;SDS011;21411;50.024;19.220;2022-07-23T04:42:10;20.40;;;18.70;;
35290;SDS011;21411;50.024;19.220;2022-07-23T04:44:36;19.20;;;17.30;;
35290;SDS011;21411;50.024;19.220;2022-07-23T04:47:02;19.70;;;18.00;;
35290;SDS011;21411;50.024;19.220;2022-07-23T04:49:27;17.80;;;16.30;;
35290;SDS011;21411;50.024;19.220;2022-07-23T04:51:54;16.30;;;14.70;;
35290;SDS011;21411;50.024;19.220;2022-07-23T04:54:19;17.70;;;16.20;;
35290;SDS011;21411;50.024;19.220;2022-07-23T04:56:45;19.50;;;18.00;;
35290;SDS011;21411;50.024;19.220;2022-07-23T04:59:11;17.50;;;16.10;;
35290;SDS011;21411;50.024;19.220;2022-07-23T05:01:37;17.10;;;15.60;;
35290;SDS011;21411;50.024;19.220;2022-07-23T05:04:03;16.30;;;15.10;;
35290;SDS011;21411;50.024;19.220;2022-07-23T05:06:29;16.10;;;14.90;;
35290;SDS011;21411;50.024;19.220;2022-07-23T05:08:56;16.20;;;14.90;;
35290;SDS011;21411;50.024;19.220;2022-07-23T05:11:22;16.70;;;15.10;;
35290;SDS011;21411;50.024;19.220;2022-07-23T05:13:48;16.60;;;15.00;;
35290;SDS011;21411;50.024;19.220;2022-07-23T05:16:14;15.80;;;14.50;;
35290;SDS011;21411;50.024;19.220;2022-07-23T05:18:40;16.10;;;14.70;;
35290;SDS011;21411;50.024;19.220;2022-07-23T05:21:06;16.60;;;14.50;;
35290;SDS011;21411;50.024;19.220;2022-07-23T05:23:32;16.10;;;14.70;;
35290;SDS011;21411;50.024;19.220;2022-07-23T05:25:57;16.20;;;14.70;;
35290;SDS011;21411;50.024;19.220;2022-07-23T05:28:24;15.70;;;14.30;;
35290;SDS011;21411;50.024;19.220;2022-07-23T05:30:50;16.20;;;14.80;;
35290;SDS011;21411;50.024;19.220;2022-07-23T05:33:18;15.50;;;14.00;;
35290;SDS011;21411;50.024;19.220;2022-07-23T05:35:45;16.10;;;14.60;;
35290;SDS011;21411;50.024;19.220;2022-07-23T05:38:11;15.90;;;14.60;;
35290;SDS011;21411;50.024;19.220;2022-07-23T05:40:36;16.00;;;14.40;;
35290;SDS011;21411;50.024;19.220;2022-07-23T05:43:03;15.10;;;13.70;;
35290;SDS011;21411;50.024;19.220;2022-07-23T05:45:29;15.70;;;14.40;;
35290;SDS011;21411;50.024;19.220;2022-07-23T05:47:55;15.20;;;13.90;;
35290;SDS011;21411;50.024;19.220;2022-07-23T05:50:21;15.70;;;14.40;;
35290;SDS011;21411;50.024;19.220;2022-07-23T05:52:47;14.80;;;13.40;;
35290;SDS011;21411;50.024;19.220;2022-07-23T05:55:13;14.20;;;13.00;;
35290;SDS011;21411;50.024;19.220;2022-07-23T05:57:40;15.30;;;13.90;;
35290;SDS011;21411;50.024;19.220;2022-07-23T06:00:07;21.80;;;13.10;;
35290;SDS011;21411;50.024;19.220;2022-07-23T06:02:35;15.60;;;14.10;;
35290;SDS011;21411;50.024;19.220;2022-07-23T06:05:03;14.30;;;13.00;;
35290;SDS011;21411;50.024;19.220;2022-07-23T06:07:29;13.90;;;12.70;;
35290;SDS011;21411;50.024;19.220;2022-07-23T06:09:55;15.30;;;14.00;;
35290;SDS011;21411;50.024;19.220;2022-07-23T06:12:21;14.70;;;13.10;;
35290;SDS011;21411;50.024;19.220;2022-07-23T06:14:47;15.40;;;14.10;;
35290;SDS011;21411;50.024;19.220;2022-07-23T06:17:15;14.80;;;13.60;;
35290;SDS011;21411;50.024;19.220;2022-07-23T06:19:41;15.70;;;14.30;;
35290;SDS011;21411;50.024;19.220;2022-07-23T06:22:07;17.80;;;16.20;;
35290;SDS011;21411;50.024;19.220;2022-07-23T06:24:33;17.70;;;16.10;;
35290;SDS011;21411;50.024;19.220;2022-07-23T06:26:59;16.80;;;15.10;;
35290;SDS011;21411;50.024;19.220;2022-07-23T06:29:25;17.60;;;16.30;;
35290;SDS011;21411;50.024;19.220;2022-07-23T06:31:51;17.40;;;15.90;;
35290;SDS011;21411;50.024;19.220;2022-07-23T06:34:17;16.50;;;15.10;;
35290;SDS011;21411;50.024;19.220;2022-07-23T06:36:43;18.40;;;16.80;;
35290;SDS011;21411;50.024;19.220;2022-07-23T06:39:09;17.70;;;16.10;;
35290;SDS011;21411;50.024;19.220;2022-07-23T06:41:34;17.10;;;15.70;;
35290;SDS011;21411;50.024;19.220;2022-07-23T06:44:01;18.00;;;16.60;;
35290;SDS011;21411;50.024;19.220;2022-07-23T06:46:26;17.80;;;16.30;;
35290;SDS011;21411;50.024;19.220;2022-07-23T06:48:52;15.80;;;14.60;;
35290;SDS011;21411;50.024;19.220;2022-07-23T06:51:19;14.50;;;13.30;;
35290;SDS011;21411;50.024;19.220;2022-07-23T06:53:45;14.70;;;13.40;;
35290;SDS011;21411;50.024;19.220;2022-07-23T06:56:11;13.50;;;12.30;;
35290;SDS011;21411;50.024;19.220;2022-07-23T06:58:37;13.70;;;12.40;;
35290;SDS011;21411;50.024;19.220;2022-07-23T07:01:03;13.90;;;12.70;;
35290;SDS011;21411;50.024;19.220;2022-07-23T07:03:29;14.20;;;12.80;;
35290;SDS011;21411;50.024;19.220;2022-07-23T07:05:55;12.30;;;11.20;;
35290;SDS011;21411;50.024;19.220;2022-07-23T07:08:23;13.80;;;12.60;;
35290;SDS011;21411;50.024;19.220;2022-07-23T07:10:49;14.00;;;12.80;;
35290;SDS011;21411;50.024;19.220;2022-07-23T07:13:16;13.50;;;12.40;;
35290;SDS011;21411;50.024;19.220;2022-07-23T07:15:42;13.10;;;11.90;;
35290;SDS011;21411;50.024;19.220;2022-07-23T07:18:08;13.80;;;12.70;;
35290;SDS011;21411;50.024;19.220;2022-07-23T07:20:34;12.80;;;11.80;;
35290;SDS011;21411;50.024;19.220;2022-07-23T07:23:00;13.60;;;12.10;;
35290;SDS011;21411;50.024;19.220;2022-07-23T07:25:26;15.00;;;13.60;;
35290;SDS011;21411;50.024;19.220;2022-07-23T07:27:52;12.70;;;11.60;;
35290;SDS011;21411;50.024;19.220;2022-07-23T07:30:18;13.30;;;12.00;;
35290;SDS011;21411;50.024;19.220;2022-07-23T07:32:44;15.00;;;13.80;;
35290;SDS011;21411;50.024;19.220;2022-07-23T07:35:11;19.20;;;17.30;;
35290;SDS011;21411;50.024;19.220;2022-07-23T07:37:36;16.90;;;15.50;;
35290;SDS011;21411;50.024;19.220;2022-07-23T07:40:03;17.10;;;15.30;;
35290;SDS011;21411;50.024;19.220;2022-07-23T07:42:30;17.50;;;15.90;;
35290;SDS011;21411;50.024;19.220;2022-07-23T07:44:57;17.10;;;15.60;;
35290;SDS011;21411;50.024;19.220;2022-07-23T07:47:24;15.40;;;13.80;;
35290;SDS011;21411;50.024;19.220;2022-07-23T07:49:50;14.10;;;12.80;;
35290;SDS011;21411;50.024;19.220;2022-07-23T07:52:16;16.10;;;14.60;;
35290;SDS011;21411;50.024;19.220;2022-07-23T07:54:42;14.10;;;12.30;;
35290;SDS011;21411;50.024;19.220;2022-07-23T07:57:08;13.30;;;12.10;;
35290;SDS011;21411;50.024;19.220;2022-07-23T07:59:34;14.50;;;13.30;;
35290;SDS011;21411;50.024;19.220;2022-07-23T08:02:01;13.40;;;12.20;;
35290;SDS011;21411;50.024;19.220;2022-07-23T08:04:27;14.40;;;13.10;;
35290;SDS011;21411;50.024;19.220;2022-07-23T08:06:53;14.30;;;13.10;;
35290;SDS011;21411;50.024;19.220;2022-07-23T08:09:19;14.60;;;13.10;;
35290;SDS011;21411;50.024;19.220;2022-07-23T08:11:45;15.20;;;13.70;;
35290;SDS011;21411;50.024;19.220;2022-07-23T08:14:11;14.20;;;12.90;;
35290;SDS011;21411;50.024;19.220;2022-07-23T08:16:37;13.40;;;12.00;;
35290;SDS011;21411;50.024;19.220;2022-07-23T08:19:03;13.60;;;12.20;;
35290;SDS011;21411;50.024;19.220;2022-07-23T08:21:29;12.90;;;11.70;;
35290;SDS011;21411;50.024;19.220;2022-07-23T08:23:55;13.20;;;12.10;;
35290;SDS011;21411;50.024;19.220;2022-07-23T08:26:21;14.60;;;13.50;;
35290;SDS011;21411;50.024;19.220;2022-07-23T08:28:47;13.50;;;12.40;;
35290;SDS011;21411;50.024;19.220;2022-07-23T08:31:13;13.40;;;12.20;;
35290;SDS011;21411;50.024;19.220;2022-07-23T08:33:41;13.20;;;12.10;;
35290;SDS011;21411;50.024;19.220;2022-07-23T08:36:07;14.80;;;13.20;;
35290;SDS011;21411;50.024;19.220;2022-07-23T08:38:34;13.30;;;12.30;;
35290;SDS011;21411;50.024;19.220;2022-07-23T08:41:01;13.80;;;12.70;;
35290;SDS011;21411;50.024;19.220;2022-07-23T08:43:30;12.70;;;11.70;;
35290;SDS011;21411;50.024;19.220;2022-07-23T08:45:59;14.90;;;13.00;;
35290;SDS011;21411;50.024;19.220;2022-07-23T08:48:28;14.10;;;12.90;;
35290;SDS011;21411;50.024;19.220;2022-07-23T08:50:57;15.00;;;13.30;;
35290;SDS011;21411;50.024;19.220;2022-07-23T08:53:25;14.10;;;12.80;;
35290;SDS011;21411;50.024;19.220;2022-07-23T08:55:53;13.80;;;12.50;;
35290;SDS011;21411;50.024;19.220;2022-07-23T08:58:20;13.10;;;12.00;;
35290;SDS011;21411;50.024;19.220;2022-07-23T09:00:47;13.40;;;12.30;;
35290;SDS011;21411;50.024;19.220;2022-07-23T09:03:18;12.00;;;11.20;;
35290;SDS011;21411;50.024;19.220;2022-07-23T09:05:46;13.20;;;12.20;;
35290;SDS011;21411;50.024;19.220;2022-07-23T09:10:52;13.00;;;12.10;;
35290;SDS011;21411;50.024;19.220;2022-07-23T09:13:24;15.80;;;12.30;;
35290;SDS011;21411;50.024;19.220;2022-07-23T09:16:06;13.20;;;11.90;;
35290;SDS011;21411;50.024;19.220;2022-07-23T09:23:36;13.50;;;12.20;;
35290;SDS011;21411;50.024;19.220;2022-07-23T09:26:25;12.80;;;11.30;;
35290;SDS011;21411;50.024;19.220;2022-07-23T09:31:34;12.70;;;11.70;;
35290;SDS011;21411;50.024;19.220;2022-07-23T09:34:08;12.00;;;10.90;;
35290;SDS011;21411;50.024;19.220;2022-07-23T09:36:39;10.50;;;9.80;;
35290;SDS011;21411;50.024;19.220;2022-07-23T09:39:05;9.30;;;8.30;;
35290;SDS011;21411;50.024;19.220;2022-07-23T09:41:37;8.20;;;7.50;;
35290;SDS011;21411;50.024;19.220;2022-07-23T09:44:07;6.50;;;6.00;;
35290;SDS011;21411;50.024;19.220;2022-07-23T09:46:36;8.20;;;7.50;;
35290;SDS011;21411;50.024;19.220;2022-07-23T09:49:13;9.20;;;8.50;;
35290;SDS011;21411;50.024;19.220;2022-07-23T09:52:05;9.00;;;8.10;;
35290;SDS011;21411;50.024;19.220;2022-07-23T09:57:00;9.80;;;9.10;;
35290;SDS011;21411;50.024;19.220;2022-07-23T09:59:30;10.20;;;9.20;;
35290;SDS011;21411;50.024;19.220;2022-07-23T10:01:59;10.40;;;9.20;;
35290;SDS011;21411;50.024;19.220;2022-07-23T10:04:27;10.40;;;9.50;;
35290;SDS011;21411;50.024;19.220;2022-07-23T10:06:55;10.30;;;9.30;;
35290;SDS011;21411;50.024;19.220;2022-07-23T10:09:24;9.70;;;8.90;;
35290;SDS011;21411;50.024;19.220;2022-07-23T10:11:54;9.50;;;8.80;;
35290;SDS011;21411;50.024;19.220;2022-07-23T10:14:38;9.70;;;8.70;;
35290;SDS011;21411;50.024;19.220;2022-07-23T10:17:04;9.80;;;8.80;;
35290;SDS011;21411;50.024;19.220;2022-07-23T10:19:31;9.70;;;8.90;;
35290;SDS011;21411;50.024;19.220;2022-07-23T10:22:05;11.40;;;9.20;;
35290;SDS011;21411;50.024;19.220;2022-07-23T10:24:46;9.10;;;8.30;;
35290;SDS011;21411;50.024;19.220;2022-07-23T10:35:43;9.60;;;8.80;;
35290;SDS011;21411;50.024;19.220;2022-07-23T10:38:19;8.80;;;8.10;;
35290;SDS011;21411;50.024;19.220;2022-07-23T10:40:59;9.70;;;8.90;;
35290;SDS011;21411;50.024;19.220;2022-07-23T10:43:29;8.90;;;8.00;;
35290;SDS011;21411;50.024;19.220;2022-07-23T10:45:57;10.00;;;9.20;;
35290;SDS011;21411;50.024;19.220;2022-07-23T10:49:20;9.40;;;8.70;;
35290;SDS011;21411;50.024;19.220;2022-07-23T10:54:41;9.20;;;8.40;;
35290;SDS011;21411;50.024;19.220;2022-07-23T10:57:10;8.90;;;8.20;;
35290;SDS011;21411;50.024;19.220;2022-07-23T11:02:34;9.00;;;8.40;;
35290;SDS011;21411;50.024;19.220;2022-07-23T11:05:08;9.00;;;8.10;;
35290;SDS011;21411;50.024;19.220;2022-07-23T11:07:36;8.90;;;8.20;;
35290;SDS011;21411;50.024;19.220;2022-07-23T11:10:33;9.50;;;8.40;;
35290;SDS011;21411;50.024;19.220;2022-07-23T11:23:58;9.60;;;8.80;;
35290;SDS011;21411;50.024;19.220;2022-07-23T11:37:06;9.20;;;8.40;;
35290;SDS011;21411;50.024;19.220;2022-07-23T11:39:35;9.30;;;8.50;;
35290;SDS011;21411;50.024;19.220;2022-07-23T11:42:03;9.20;;;8.40;;
35290;SDS011;21411;50.024;19.220;2022-07-23T11:47:09;9.00;;;8.30;;
35290;SDS011;21411;50.024;19.220;2022-07-23T11:49:37;8.60;;;8.00;;
35290;SDS011;21411;50.024;19.220;2022-07-23T11:52:07;8.80;;;8.00;;
35290;SDS011;21411;50.024;19.220;2022-07-23T11:54:35;8.60;;;8.00;;
35290;SDS011;21411;50.024;19.220;2022-07-23T11:57:12;9.00;;;8.00;;
35290;SDS011;21411;50.024;19.220;2022-07-23T11:59:38;8.60;;;7.80;;
35290;SDS011;21411;50.024;19.220;2022-07-23T12:02:05;8.30;;;7.60;;
35290;SDS011;21411;50.024;19.220;2022-07-23T12:07:05;10.00;;;8.20;;
35290;SDS011;21411;50.024;19.220;2022-07-23T12:09:56;8.90;;;8.00;;
35290;SDS011;21411;50.024;19.220;2022-07-23T12:12:24;9.20;;;8.30;;
35290;SDS011;21411;50.024;19.220;2022-07-23T12:14:59;8.50;;;7.80;;
35290;SDS011;21411;50.024;19.220;2022-07-23T12:17:27;8.80;;;8.00;;
35290;SDS011;21411;50.024;19.220;2022-07-23T12:19:56;8.90;;;8.10;;
35290;SDS011;21411;50.024;19.220;2022-07-23T12:22:33;7.50;;;7.00;;
35290;SDS011;21411;50.024;19.220;2022-07-23T12:25:14;8.40;;;7.80;;
35290;SDS011;21411;50.024;19.220;2022-07-23T12:27:42;8.20;;;7.50;;
35290;SDS011;21411;50.024;19.220;2022-07-23T12:33:08;8.80;;;8.00;;
35290;SDS011;21411;50.024;19.220;2022-07-23T12:35:39;8.40;;;7.80;;
35290;SDS011;21411;50.024;19.220;2022-07-23T12:38:08;8.30;;;7.60;;
35290;SDS011;21411;50.024;19.220;2022-07-23T12:40:43;8.00;;;7.30;;
35290;SDS011;21411;50.024;19.220;2022-07-23T12:43:19;7.80;;;7.30;;
35290;SDS011;21411;50.024;19.220;2022-07-23T12:53:25;8.10;;;7.60;;
35290;SDS011;21411;50.024;19.220;2022-07-23T13:01:54;8.50;;;7.60;;
35290;SDS011;21411;50.024;19.220;2022-07-23T13:04:24;8.80;;;7.90;;
35290;SDS011;21411;50.024;19.220;2022-07-23T13:06:51;8.00;;;7.20;;
35290;SDS011;21411;50.024;19.220;2022-07-23T13:09:27;7.90;;;7.30;;
35290;SDS011;21411;50.024;19.220;2022-07-23T13:11:55;8.20;;;7.40;;
35290;SDS011;21411;50.024;19.220;2022-07-23T13:14:22;9.20;;;8.40;;
35290;SDS011;21411;50.024;19.220;2022-07-23T13:16:49;8.20;;;7.60;;
35290;SDS011;21411;50.024;19.220;2022-07-23T13:19:18;8.30;;;7.70;;
35290;SDS011;21411;50.024;19.220;2022-07-23T13:21:44;8.80;;;7.90;;
35290;SDS011;21411;50.024;19.220;2022-07-23T13:24:11;8.60;;;7.90;;
35290;SDS011;21411;50.024;19.220;2022-07-23T13:26:38;9.70;;;8.80;;
35290;SDS011;21411;50.024;19.220;2022-07-23T13:29:05;9.00;;;8.30;;
35290;SDS011;21411;50.024;19.220;2022-07-23T13:31:32;8.80;;;8.10;;
35290;SDS011;21411;50.024;19.220;2022-07-23T13:33:58;9.30;;;8.50;;
35290;SDS011;21411;50.024;19.220;2022-07-23T13:36:26;8.80;;;8.10;;
35290;SDS011;21411;50.024;19.220;2022-07-23T13:38:52;8.10;;;7.50;;
35290;SDS011;21411;50.024;19.220;2022-07-23T13:41:18;9.20;;;8.60;;
35290;SDS011;21411;50.024;19.220;2022-07-23T13:43:44;9.10;;;8.20;;
35290;SDS011;21411;50.024;19.220;2022-07-23T13:46:11;9.30;;;8.50;;
35290;SDS011;21411;50.024;19.220;2022-07-23T13:48:36;9.80;;;8.80;;
35290;SDS011;21411;50.024;19.220;2022-07-23T13:51:02;8.50;;;7.60;;
35290;SDS011;21411;50.024;19.220;2022-07-23T13:53:28;9.00;;;8.20;;
35290;SDS011;21411;50.024;19.220;2022-07-23T13:55:55;16.60;;;9.20;;
35290;SDS011;21411;50.024;19.220;2022-07-23T13:58:22;9.60;;;8.70;;
35290;SDS011;21411;50.024;19.220;2022-07-23T14:00:50;10.40;;;8.90;;
35290;SDS011;21411;50.024;19.220;2022-07-23T14:05:44;10.40;;;9.40;;
35290;SDS011;21411;50.024;19.220;2022-07-23T14:08:11;10.80;;;9.10;;
35290;SDS011;21411;50.024;19.220;2022-07-23T14:10:37;10.30;;;9.30;;
35290;SDS011;21411;50.024;19.220;2022-07-23T14:13:03;11.50;;;10.40;;
35290;SDS011;21411;50.024;19.220;2022-07-23T14:15:30;15.70;;;10.70;;
35290;SDS011;21411;50.024;19.220;2022-07-23T14:17:57;13.00;;;11.40;;
35290;SDS011;21411;50.024;19.220;2022-07-23T14:20:24;10.20;;;9.30;;
35290;SDS011;21411;50.024;19.220;2022-07-23T14:22:51;9.80;;;8.90;;
35290;SDS011;21411;50.024;19.220;2022-07-23T14:25:17;10.10;;;9.00;;
35290;SDS011;21411;50.024;19.220;2022-07-23T14:27:43;10.80;;;9.80;;
35290;SDS011;21411;50.024;19.220;2022-07-23T14:30:10;10.30;;;9.30;;
35290;SDS011;21411;50.024;19.220;2022-07-23T14:32:39;10.10;;;9.20;;
35290;SDS011;21411;50.024;19.220;2022-07-23T14:35:05;11.20;;;10.40;;
35290;SDS011;21411;50.024;19.220;2022-07-23T14:37:32;13.20;;;12.00;;
35290;SDS011;21411;50.024;19.220;2022-07-23T14:39:58;13.70;;;12.10;;
35290;SDS011;21411;50.024;19.220;2022-07-23T14:42:24;11.90;;;10.50;;
35290;SDS011;21411;50.024;19.220;2022-07-23T14:44:51;14.80;;;12.40;;
35290;SDS011;21411;50.024;19.220;2022-07-23T14:47:17;12.80;;;11.60;;
35290;SDS011;21411;50.024;19.220;2022-07-23T14:49:43;13.80;;;12.60;;
35290;SDS011;21411;50.024;19.220;2022-07-23T14:52:09;15.00;;;13.60;;
35290;SDS011;21411;50.024;19.220;2022-07-23T14:54:35;13.30;;;12.10;;
35290;SDS011;21411;50.024;19.220;2022-07-23T14:57:01;12.20;;;11.30;;
35290;SDS011;21411;50.024;19.220;2022-07-23T14:59:29;12.00;;;11.00;;
35290;SDS011;21411;50.024;19.220;2022-07-23T15:01:56;14.50;;;13.10;;
35290;SDS011;21411;50.024;19.220;2022-07-23T15:04:23;14.00;;;12.70;;
35290;SDS011;21411;50.024;19.220;2022-07-23T15:06:50;12.70;;;11.50;;
35290;SDS011;21411;50.024;19.220;2022-07-23T15:09:17;11.50;;;10.30;;
35290;SDS011;21411;50.024;19.220;2022-07-23T15:11:43;10.80;;;9.90;;
35290;SDS011;21411;50.024;19.220;2022-07-23T15:14:09;11.20;;;10.20;;
35290;SDS011;21411;50.024;19.220;2022-07-23T15:16:35;12.00;;;10.80;;
35290;SDS011;21411;50.024;19.220;2022-07-23T15:19:03;12.10;;;10.30;;
35290;SDS011;21411;50.024;19.220;2022-07-23T15:21:29;10.60;;;9.70;;
35290;SDS011;21411;50.024;19.220;2022-07-23T15:23:56;10.10;;;9.20;;
35290;SDS011;21411;50.024;19.220;2022-07-23T15:26:25;10.80;;;9.70;;
35290;SDS011;21411;50.024;19.220;2022-07-23T15:28:52;10.40;;;9.40;;
35290;SDS011;21411;50.024;19.220;2022-07-23T15:31:18;10.00;;;9.20;;